Time;durP1;ratioP1;P1;durP2;ratioP2;P2;SDS_P1;SDS_P2;PMS_P1;PMS_P2;Temp;Humidity;BMP_temperature;BMP_pressure;BME280_temperature;BME280_humidity;BME280_pressure;Samples;Min_cycle;Max_cycle;Signal;HPM_P1;HPM_P2
2023/05/28 00:00:02;;;;;;;16.65;7.30;;;11.40;99.90;;;;;;5055650;28;20068;-69
2023/05/28 00:02:31;;;;;;;17.52;6.40;;;11.40;99.90;;;;;;5055774;28;20484;-68
2023/05/28 00:04:58;;;;;;;19.15;7.63;;;11.40;99.90;;;;;;5073240;28;20055;-69
2023/05/28 00:07:28;;;;;;;11.98;5.97;;;11.40;99.90;;;;;;5074080;28;20127;-68
2023/05/28 00:09:55;;;;;;;11.10;5.40;;;11.50;99.90;;;;;;5051586;28;20080;-69
2023/05/28 00:12:22;;;;;;;13.50;5.45;;;11.50;99.90;;;;;;5053052;28;20079;-69
2023/05/28 00:14:49;;;;;;;16.02;6.47;;;11.50;99.90;;;;;;5051917;28;20083;-69
2023/05/28 00:17:16;;;;;;;18.70;6.28;;;11.50;99.90;;;;;;5052303;28;20056;-68
2023/05/28 00:19:45;;;;;;;14.07;4.93;;;11.60;99.90;;;;;;5051426;28;20045;-68
2023/05/28 00:22:12;;;;;;;18.85;5.10;;;12.30;99.90;;;;;;5052341;28;20053;-69
2023/05/28 00:24:39;;;;;;;14.57;4.97;;;11.50;99.90;;;;;;5053307;28;20049;-69
2023/05/28 00:27:07;;;;;;;15.95;5.97;;;12.20;99.90;;;;;;5053466;28;20748;-68
2023/05/28 00:29:34;;;;;;;16.50;5.25;;;11.60;99.90;;;;;;5053790;28;20124;-69
2023/05/28 00:32:01;;;;;;;13.63;4.47;;;11.60;99.90;;;;;;5051794;28;20061;-69
2023/05/28 00:34:28;;;;;;;15.02;5.20;;;11.60;99.90;;;;;;5052385;28;20052;-69
2023/05/28 00:36:56;;;;;;;14.77;4.82;;;11.70;99.90;;;;;;5052559;28;20055;-69
2023/05/28 00:39:23;;;;;;;13.95;5.25;;;12.50;99.90;;;;;;5053114;28;20052;-69
2023/05/28 00:42:00;;;;;;;12.77;4.80;;;11.70;99.90;;;;;;5051890;28;20408;-69
2023/05/28 00:44:27;;;;;;;17.92;5.57;;;11.80;99.90;;;;;;5052879;28;20141;-68
2023/05/28 00:46:55;;;;;;;19.70;5.20;;;11.70;99.90;;;;;;5051788;28;20128;-69
2023/05/28 00:49:22;;;;;;;13.57;5.40;;;11.70;99.90;;;;;;5051931;28;20060;-68
2023/05/28 00:51:50;;;;;;;20.50;6.25;;;11.70;99.90;;;;;;5052169;28;20500;-68
2023/05/28 00:54:19;;;;;;;15.23;4.65;;;11.80;99.90;;;;;;5052068;28;20068;-69
2023/05/28 00:56:46;;;;;;;16.33;5.60;;;11.70;99.90;;;;;;5049769;28;20064;-68
2023/05/28 00:59:13;;;;;;;11.25;4.78;;;11.70;99.90;;;;;;5051387;28;20098;-69
2023/05/28 01:01:41;;;;;;;11.63;4.45;;;11.70;99.90;;;;;;5053242;28;20084;-69
2023/05/28 01:04:08;;;;;;;11.27;4.50;;;11.70;99.90;;;;;;5052702;28;20492;-69
2023/05/28 01:06:37;;;;;;;15.95;5.38;;;11.70;99.90;;;;;;5050955;28;20119;-69
2023/05/28 01:09:05;;;;;;;11.27;5.03;;;11.70;99.90;;;;;;5054345;28;20048;-69
2023/05/28 01:11:35;;;;;;;12.57;4.97;;;11.70;99.90;;;;;;5053817;28;20795;-69
2023/05/28 01:14:03;;;;;;;16.30;5.38;;;11.70;99.90;;;;;;5050517;28;20080;-69
2023/05/28 01:16:32;;;;;;;11.13;5.00;;;11.60;99.90;;;;;;5033455;28;20045;-69
2023/05/28 01:18:59;;;;;;;14.07;5.20;;;11.60;99.90;;;;;;5053391;28;20041;-69
2023/05/28 01:21:28;;;;;;;19.25;5.80;;;12.30;99.90;;;;;;5034856;28;20072;-68
2023/05/28 01:23:58;;;;;;;9.35;4.55;;;11.60;99.90;;;;;;5035254;28;20496;-68
2023/05/28 01:26:27;;;;;;;16.33;4.90;;;12.30;99.90;;;;;;5034057;28;20053;-69
2023/05/28 01:28:54;;;;;;;15.88;5.30;;;11.60;99.90;;;;;;5035117;28;20049;-69
2023/05/28 01:31:21;;;;;;;12.43;4.80;;;11.60;99.90;;;;;;5035322;28;20479;-69
2023/05/28 01:33:48;;;;;;;15.85;5.78;;;11.50;99.90;;;;;;5034614;28;20052;-68
2023/05/28 01:36:19;;;;;;;15.63;5.05;;;11.50;99.90;;;;;;5052389;28;20052;-69
2023/05/28 01:38:49;;;;;;;18.63;6.03;;;11.50;99.90;;;;;;5035280;28;20057;-69
2023/05/28 01:41:17;;;;;;;17.65;6.22;;;11.50;99.90;;;;;;5034620;28;20527;-69
2023/05/28 01:43:46;;;;;;;17.20;5.50;;;11.50;99.90;;;;;;5034609;28;20068;-69
2023/05/28 01:46:14;;;;;;;11.07;5.32;;;11.50;99.90;;;;;;5037293;28;20048;-69
2023/05/28 01:48:41;;;;;;;19.20;6.65;;;11.50;99.90;;;;;;5032469;28;20057;-69
2023/05/28 01:51:08;;;;;;;16.88;6.45;;;11.40;99.90;;;;;;5052833;28;20040;-69
2023/05/28 01:53:35;;;;;;;18.65;7.75;;;11.40;99.90;;;;;;5034841;28;20083;-67
2023/05/28 01:56:02;;;;;;;19.15;8.23;;;11.40;99.90;;;;;;5034244;28;20053;-68
2023/05/28 01:58:31;;;;;;;19.60;8.05;;;11.50;99.90;;;;;;5034582;28;20045;-69
2023/05/28 02:01:08;;;;;;;16.63;7.25;;;11.40;99.90;;;;;;5034052;28;20053;-68
2023/05/28 02:03:35;;;;;;;18.55;7.30;;;11.80;99.90;;;;;;5052255;28;20052;-68
2023/05/28 02:06:02;;;;;;;17.60;7.20;;;11.30;99.90;;;;;;5052491;28;20131;-69
2023/05/28 02:08:28;;;;;;;18.48;7.82;;;11.30;99.90;;;;;;5071268;28;20052;-68
2023/05/28 02:10:55;;;;;;;15.80;7.15;;;11.30;99.90;;;;;;5053486;28;20056;-69
2023/05/28 02:13:22;;;;;;;17.90;7.38;;;11.30;99.90;;;;;;5051745;28;20048;-67
2023/05/28 02:15:51;;;;;;;16.17;7.22;;;11.30;99.90;;;;;;5071228;28;20044;-68
2023/05/28 02:18:18;;;;;;;12.10;6.53;;;11.30;99.90;;;;;;5051942;28;20102;-67
2023/05/28 02:20:45;;;;;;;15.18;6.00;;;11.30;99.90;;;;;;5053603;28;20905;-68
2023/05/28 02:23:12;;;;;;;10.65;5.53;;;12.10;99.90;;;;;;5071150;28;20481;-69
2023/05/28 02:25:39;;;;;;;16.08;6.05;;;11.60;99.90;;;;;;5071782;28;20114;-68
2023/05/28 02:28:06;;;;;;;15.43;6.00;;;11.30;99.90;;;;;;5075505;28;20041;-68
2023/05/28 02:30:33;;;;;;;19.55;6.22;;;11.30;99.90;;;;;;5059786;28;20048;-68
2023/05/28 02:33:01;;;;;;;12.30;6.00;;;11.30;99.90;;;;;;5078493;28;20049;-68
2023/05/28 02:35:28;;;;;;;12.68;5.13;;;11.30;99.90;;;;;;5060054;28;20053;-68
2023/05/28 02:37:55;;;;;;;13.63;5.68;;;11.80;99.90;;;;;;5059479;28;20097;-68
2023/05/28 02:40:22;;;;;;;17.98;5.93;;;11.30;99.90;;;;;;5060198;28;20063;-68
2023/05/28 02:42:49;;;;;;;13.32;5.95;;;11.30;99.90;;;;;;5078358;28;20056;-68
2023/05/28 02:45:16;;;;;;;18.35;6.00;;;11.90;99.90;;;;;;5077704;28;20094;-67
2023/05/28 02:47:43;;;;;;;14.85;7.88;;;11.30;99.90;;;;;;5059538;28;20040;-68
2023/05/28 02:50:11;;;;;;;15.10;6.35;;;11.20;99.90;;;;;;5059695;28;20404;-68
2023/05/28 02:52:38;;;;;;;12.27;5.93;;;11.30;99.90;;;;;;5059520;28;20049;-68
2023/05/28 02:55:06;;;;;;;15.70;6.55;;;11.20;99.90;;;;;;5078382;28;20071;-67
2023/05/28 02:57:33;;;;;;;20.35;6.97;;;11.20;99.90;;;;;;5075751;28;20041;-67
2023/05/28 03:00:00;;;;;;;19.92;6.10;;;11.20;99.90;;;;;;5077687;28;20048;-67
2023/05/28 03:02:27;;;;;;;22.08;6.47;;;11.20;99.90;;;;;;5075843;28;20052;-67
2023/05/28 03:04:54;;;;;;;19.17;5.75;;;11.20;99.90;;;;;;5077553;28;20143;-67
2023/05/28 03:07:22;;;;;;;16.63;6.10;;;11.20;99.90;;;;;;5059750;28;20044;-67
2023/05/28 03:09:49;;;;;;;15.75;6.05;;;11.20;99.90;;;;;;5058870;28;20052;-66
2023/05/28 03:12:16;;;;;;;14.55;6.28;;;11.70;99.90;;;;;;5059093;28;20071;-68
2023/05/28 03:14:43;;;;;;;14.77;6.53;;;11.30;99.90;;;;;;5059795;28;20049;-67
2023/05/28 03:17:11;;;;;;;12.95;6.47;;;11.10;99.90;;;;;;5077836;28;20045;-67
2023/05/28 03:19:38;;;;;;;14.70;6.70;;;11.10;99.90;;;;;;5058951;28;20044;-67
2023/05/28 03:22:05;;;;;;;14.13;6.38;;;11.10;99.90;;;;;;5059416;28;20442;-67
2023/05/28 03:24:34;;;;;;;15.57;6.70;;;11.00;99.90;;;;;;5059554;28;20048;-68
2023/05/28 03:27:02;;;;;;;19.40;6.85;;;11.80;99.90;;;;;;5058660;28;20052;-69
2023/05/28 03:29:29;;;;;;;13.95;5.72;;;11.00;99.90;;;;;;5059783;28;20445;-68
2023/05/28 03:31:56;;;;;;;17.58;6.82;;;11.80;99.90;;;;;;5059496;28;20051;-68
2023/05/28 03:34:23;;;;;;;17.23;6.57;;;11.50;99.90;;;;;;5059221;28;20133;-68
2023/05/28 03:36:50;;;;;;;18.90;6.28;;;11.40;99.90;;;;;;5059683;28;20098;-68
2023/05/28 03:39:18;;;;;;;18.52;6.20;;;10.90;99.90;;;;;;5075255;28;20105;-68
2023/05/28 03:41:46;;;;;;;14.40;5.85;;;10.90;99.90;;;;;;5071597;28;20455;-68
2023/05/28 03:44:13;;;;;;;13.48;5.47;;;10.90;99.90;;;;;;5074523;28;20040;-69
2023/05/28 03:46:40;;;;;;;15.02;6.00;;;10.90;99.90;;;;;;5074507;28;20048;-69
2023/05/28 03:49:07;;;;;;;14.88;5.85;;;10.90;99.90;;;;;;5056032;28;20060;-69
2023/05/28 03:51:34;;;;;;;12.65;5.50;;;11.30;99.90;;;;;;5056118;28;20055;-68
2023/05/28 03:54:01;;;;;;;17.70;5.20;;;10.90;99.90;;;;;;5056117;28;20056;-67
2023/05/28 03:56:29;;;;;;;15.10;6.15;;;10.90;99.90;;;;;;5073491;28;20049;-68
2023/05/28 03:58:57;;;;;;;16.45;5.75;;;10.90;99.90;;;;;;5074007;28;20484;-68
2023/05/28 04:01:24;;;;;;;14.50;6.22;;;10.90;99.90;;;;;;5055741;28;20048;-68
2023/05/28 04:03:51;;;;;;;14.32;5.53;;;10.90;99.90;;;;;;5072084;28;20056;-67
2023/05/28 04:06:18;;;;;;;11.93;5.30;;;10.90;99.90;;;;;;5073901;28;20044;-67
2023/05/28 04:08:45;;;;;;;17.70;6.10;;;10.90;99.90;;;;;;5051761;28;20492;-67
2023/05/28 04:11:12;;;;;;;22.55;7.20;;;11.00;99.90;;;;;;5053822;28;20049;-67
2023/05/28 04:13:39;;;;;;;14.00;6.03;;;11.00;99.90;;;;;;5050876;28;20048;-67
2023/05/28 04:16:09;;;;;;;16.73;6.00;;;11.00;99.90;;;;;;5051858;28;20048;-67
2023/05/28 04:18:36;;;;;;;20.85;5.18;;;11.10;99.90;;;;;;5052319;28;20037;-66
2023/05/28 04:21:03;;;;;;;17.25;5.43;;;11.00;99.90;;;;;;5053914;28;20079;-66
2023/05/28 04:23:30;;;;;;;13.23;5.15;;;11.10;99.90;;;;;;5053128;28;20052;-66
2023/05/28 04:25:57;;;;;;;13.77;5.15;;;11.10;99.90;;;;;;5052486;28;20053;-69
2023/05/28 04:28:27;;;;;;;13.93;5.43;;;11.10;99.90;;;;;;5052495;28;20045;-68
2023/05/28 04:30:54;;;;;;;12.73;5.97;;;11.90;99.90;;;;;;5053461;28;20045;-68
2023/05/28 04:33:23;;;;;;;13.40;4.65;;;11.20;99.90;;;;;;5051954;28;20088;-69
2023/05/28 04:35:51;;;;;;;14.27;5.32;;;11.30;99.90;;;;;;5052304;28;20048;-68
2023/05/28 04:38:18;;;;;;;18.13;5.70;;;11.30;99.90;;;;;;5052414;28;20490;-68
2023/05/28 04:40:45;;;;;;;13.80;5.22;;;11.30;99.90;;;;;;5053564;28;20052;-69
2023/05/28 04:43:12;;;;;;;14.63;5.25;;;11.40;99.90;;;;;;5050041;28;20045;-68
2023/05/28 04:45:39;;;;;;;14.15;5.10;;;11.50;99.90;;;;;;5051763;28;20055;-67
2023/05/28 04:48:07;;;;;;;13.13;5.28;;;11.50;99.90;;;;;;5053064;28;20052;-69
2023/05/28 04:50:36;;;;;;;15.77;5.18;;;11.60;99.90;;;;;;5051294;28;20089;-67
2023/05/28 04:53:03;;;;;;;16.08;5.22;;;11.70;99.90;;;;;;5053351;28;20044;-68
2023/05/28 04:55:29;;;;;;;12.80;5.28;;;11.70;99.90;;;;;;5053030;28;20079;-67
2023/05/28 04:57:56;;;;;;;18.25;5.40;;;11.80;99.90;;;;;;5052382;28;20041;-68
2023/05/28 05:00:26;;;;;;;15.98;5.35;;;11.90;99.90;;;;;;5052877;28;20053;-68
2023/05/28 05:02:54;;;;;;;9.27;5.22;;;11.90;99.90;;;;;;5053249;28;20051;-67
2023/05/28 05:05:21;;;;;;;12.40;5.63;;;12.00;99.90;;;;;;5050560;28;20048;-69
2023/05/28 05:07:51;;;;;;;12.27;5.50;;;12.00;99.90;;;;;;5054336;28;20497;-66
2023/05/28 05:10:19;;;;;;;16.98;5.05;;;12.00;99.90;;;;;;5072572;28;20048;-68
2023/05/28 05:12:46;;;;;;;15.13;6.30;;;12.10;99.90;;;;;;5072298;28;20378;-67
2023/05/28 05:15:13;;;;;;;13.88;5.57;;;12.60;99.90;;;;;;5054926;28;20052;-68
2023/05/28 05:17:40;;;;;;;13.25;5.57;;;13.10;99.90;;;;;;5072349;28;20051;-69
2023/05/28 05:20:08;;;;;;;18.27;5.72;;;12.50;99.90;;;;;;5054142;28;20127;-68
2023/05/28 05:22:35;;;;;;;11.05;5.72;;;12.70;99.90;;;;;;5070336;28;20052;-68
2023/05/28 05:25:04;;;;;;;11.82;5.95;;;12.90;99.90;;;;;;5054786;28;20117;-68
2023/05/28 05:27:31;;;;;;;11.77;5.10;;;13.10;99.90;;;;;;5069873;28;20087;-68
2023/05/28 05:29:58;;;;;;;13.45;5.30;;;13.30;99.90;;;;;;5054245;28;20067;-68
2023/05/28 05:32:25;;;;;;;18.70;5.95;;;13.50;99.90;;;;;;5072415;28;20048;-69
2023/05/28 05:34:52;;;;;;;14.63;5.10;;;13.70;99.90;;;;;;5054065;28;20049;-69
2023/05/28 05:37:18;;;;;;;11.85;5.10;;;14.70;99.90;;;;;;5072480;28;20056;-68
2023/05/28 05:39:45;;;;;;;16.27;5.68;;;14.10;99.90;;;;;;5054004;28;20060;-69
2023/05/28 05:42:14;;;;;;;13.18;5.18;;;14.40;99.90;;;;;;5054025;28;20052;-68
2023/05/28 05:44:41;;;;;;;11.07;5.40;;;14.50;99.90;;;;;;5070243;28;20052;-70
2023/05/28 05:47:08;;;;;;;9.00;4.88;;;14.60;99.90;;;;;;5053704;28;20056;-70
2023/05/28 05:49:34;;;;;;;12.57;4.90;;;14.80;99.90;;;;;;5051951;28;20052;-69
2023/05/28 05:52:01;;;;;;;10.23;4.65;;;15.00;99.90;;;;;;5053959;28;20106;-69
2023/05/28 05:54:28;;;;;;;11.50;5.00;;;15.10;99.90;;;;;;5051728;28;20496;-69
2023/05/28 05:56:55;;;;;;;9.52;5.32;;;15.30;99.90;;;;;;5053840;28;20044;-68
2023/05/28 05:59:23;;;;;;;15.13;5.53;;;15.40;99.90;;;;;;5054346;28;20532;-69
2023/05/28 06:01:51;;;;;;;14.25;5.68;;;15.40;99.90;;;;;;5052837;28;20102;-69
2023/05/28 06:04:18;;;;;;;14.98;6.32;;;15.60;99.90;;;;;;5072028;28;20041;-69
2023/05/28 06:06:45;;;;;;;14.10;5.18;;;15.80;99.90;;;;;;5053639;28;20052;-68
2023/05/28 06:09:12;;;;;;;12.70;5.07;;;15.80;99.90;;;;;;5070718;28;20057;-68
2023/05/28 06:11:40;;;;;;;16.67;5.80;;;16.00;99.90;;;;;;5053702;28;20061;-70
2023/05/28 06:14:07;;;;;;;12.27;5.53;;;16.20;99.90;;;;;;5053813;28;20057;-68
2023/05/28 06:16:35;;;;;;;12.38;5.63;;;16.30;99.90;;;;;;5053472;28;20071;-68
2023/05/28 06:19:02;;;;;;;15.30;5.30;;;16.40;99.90;;;;;;5053209;28;20044;-68
2023/05/28 06:21:29;;;;;;;14.55;5.63;;;16.40;99.90;;;;;;5053824;28;20105;-68
2023/05/28 06:23:56;;;;;;;11.82;5.10;;;16.60;99.90;;;;;;5070913;28;20044;-69
2023/05/28 06:26:23;;;;;;;14.07;5.40;;;16.80;99.90;;;;;;5053880;28;20106;-69
2023/05/28 06:28:50;;;;;;;14.60;5.10;;;16.90;99.90;;;;;;5052992;28;20056;-70
2023/05/28 06:31:17;;;;;;;13.82;5.22;;;17.10;99.90;;;;;;5053689;28;20102;-70
2023/05/28 06:33:46;;;;;;;13.63;5.13;;;17.20;99.90;;;;;;5053570;28;20113;-70
2023/05/28 06:36:13;;;;;;;9.98;5.18;;;17.30;99.90;;;;;;5053011;28;20079;-68
2023/05/28 06:38:40;;;;;;;12.70;5.22;;;17.30;99.90;;;;;;5053611;28;20098;-69
2023/05/28 06:41:07;;;;;;;15.20;4.88;;;17.50;99.90;;;;;;5053203;28;20135;-70
2023/05/28 06:43:34;;;;;;;10.95;4.47;;;17.70;99.90;;;;;;5053125;28;20052;-70
2023/05/28 06:46:01;;;;;;;14.05;4.38;;;17.80;99.90;;;;;;5065745;28;20451;-69
2023/05/28 06:48:28;;;;;;;10.70;4.13;;;17.90;99.90;;;;;;5045444;28;20128;-69
2023/05/28 06:50:58;;;;;;;10.00;4.15;;;18.20;99.90;;;;;;5068567;28;20074;-70
2023/05/28 06:53:25;;;;;;;10.35;4.18;;;18.50;99.90;;;;;;5051626;28;20049;-70
2023/05/28 06:55:52;;;;;;;10.27;4.20;;;18.80;99.90;;;;;;5050610;28;20067;-70
2023/05/28 06:58:19;;;;;;;9.70;3.88;;;19.10;99.90;;;;;;5052173;28;20107;-71
2023/05/28 07:00:46;;;;;;;11.27;4.22;;;19.30;99.90;;;;;;5069402;28;20515;-70
2023/05/28 07:03:13;;;;;;;10.13;4.25;;;19.50;99.90;;;;;;5050386;28;20045;-70
2023/05/28 07:05:40;;;;;;;8.05;4.13;;;19.80;99.90;;;;;;5051193;28;20056;-70
2023/05/28 07:08:09;;;;;;;9.88;4.10;;;20.00;99.90;;;;;;5048481;28;20045;-70
2023/05/28 07:10:36;;;;;;;6.38;3.53;;;20.30;99.90;;;;;;5045995;28;20492;-70
2023/05/28 07:13:03;;;;;;;7.15;3.75;;;20.50;99.90;;;;;;5050206;28;20044;-70
2023/05/28 07:15:30;;;;;;;7.68;3.50;;;20.60;99.90;;;;;;5051061;28;20060;-70
2023/05/28 07:17:57;;;;;;;8.57;3.90;;;21.00;99.90;;;;;;5049855;28;20049;-71
2023/05/28 07:20:24;;;;;;;7.30;3.60;;;21.20;99.90;;;;;;5051665;28;20056;-70
2023/05/28 07:22:51;;;;;;;11.10;4.57;;;21.30;99.90;;;;;;5051973;28;20049;-70
2023/05/28 07:25:19;;;;;;;7.07;3.72;;;21.60;99.50;;;;;;5053655;28;20052;-70
2023/05/28 07:27:46;;;;;;;7.40;3.67;;;21.70;98.50;;;;;;5052144;28;20052;-71
2023/05/28 07:30:13;;;;;;;7.82;3.40;;;21.80;97.00;;;;;;5054573;28;20366;-70
2023/05/28 07:32:40;;;;;;;8.23;2.90;;;22.10;96.80;;;;;;5052117;28;20045;-70
2023/05/28 07:35:08;;;;;;;6.82;3.13;;;22.30;93.30;;;;;;5052928;28;20064;-70
2023/05/28 07:37:35;;;;;;;5.90;2.80;;;22.40;93.40;;;;;;5051665;28;20059;-71
2023/05/28 07:40:02;;;;;;;6.95;3.20;;;22.50;91.70;;;;;;5050481;28;20091;-71
2023/05/28 07:42:31;;;;;;;6.85;3.25;;;22.60;91.30;;;;;;5051637;28;20056;-70
2023/05/28 07:44:58;;;;;;;7.47;2.50;;;22.70;90.40;;;;;;5051902;28;20067;-71
2023/05/28 07:47:25;;;;;;;6.38;2.90;;;22.80;90.30;;;;;;5050943;28;20049;-71
2023/05/28 07:49:52;;;;;;;6.43;2.75;;;23.10;88.50;;;;;;5052364;28;20107;-71
2023/05/28 07:52:19;;;;;;;6.47;2.65;;;23.10;87.00;;;;;;5051006;28;20060;-70
2023/05/28 07:54:46;;;;;;;5.95;2.72;;;23.10;87.30;;;;;;5053706;28;20045;-71
2023/05/28 07:57:14;;;;;;;6.53;2.67;;;23.40;86.90;;;;;;5051046;28;20044;-71
2023/05/28 07:59:43;;;;;;;6.68;2.53;;;23.50;84.80;;;;;;5053713;28;20033;-72
2023/05/28 08:02:10;;;;;;;5.97;2.67;;;23.80;83.30;;;;;;5050349;28;20057;-71
2023/05/28 08:04:37;;;;;;;6.55;3.00;;;23.80;83.50;;;;;;5051813;28;20052;-71
2023/05/28 08:07:04;;;;;;;6.10;2.90;;;23.90;83.40;;;;;;5051209;28;20064;-72
2023/05/28 08:09:31;;;;;;;5.50;3.13;;;24.10;82.80;;;;;;5053949;28;20053;-71
2023/05/28 08:12:00;;;;;;;5.53;3.20;;;24.30;81.10;;;;;;5055343;28;20530;-71
2023/05/28 08:14:27;;;;;;;7.97;3.30;;;24.50;80.50;;;;;;5054357;28;20064;-71
2023/05/28 08:16:55;;;;;;;5.20;3.10;;;24.50;79.90;;;;;;5053764;28;20056;-70
2023/05/28 08:19:22;;;;;;;5.82;3.42;;;24.80;79.60;;;;;;5053433;28;20057;-71
2023/05/28 08:21:49;;;;;;;6.15;3.45;;;24.80;79.30;;;;;;5054473;28;20052;-71
2023/05/28 08:24:16;;;;;;;6.15;3.10;;;25.00;79.10;;;;;;5053794;28;20448;-70
2023/05/28 08:26:44;;;;;;;7.93;3.22;;;24.80;78.40;;;;;;5072736;28;20055;-70
2023/05/28 08:29:11;;;;;;;6.18;3.35;;;25.00;78.20;;;;;;5050962;28;20048;-71
2023/05/28 08:31:38;;;;;;;6.93;3.17;;;25.10;77.80;;;;;;5073247;28;20054;-72
2023/05/28 08:34:06;;;;;;;8.80;3.75;;;25.30;77.10;;;;;;5069488;28;20048;-71
2023/05/28 08:36:33;;;;;;;5.80;3.42;;;25.40;77.00;;;;;;5054288;28;20114;-71
2023/05/28 08:39:00;;;;;;;6.22;3.28;;;25.40;76.30;;;;;;5053287;28;20052;-71
2023/05/28 08:41:27;;;;;;;6.05;3.22;;;25.50;76.10;;;;;;5053816;28;20064;-72
2023/05/28 08:43:54;;;;;;;6.30;3.63;;;25.60;76.30;;;;;;5070995;28;20459;-70
2023/05/28 08:46:21;;;;;;;8.68;3.80;;;25.80;77.10;;;;;;5070723;28;20055;-71
2023/05/28 08:48:49;;;;;;;7.15;3.67;;;25.80;77.00;;;;;;5051530;28;20048;-71
2023/05/28 08:51:19;;;;;;;7.00;4.10;;;26.00;76.60;;;;;;5052772;28;20056;-71
2023/05/28 08:53:48;;;;;;;8.93;3.50;;;26.20;74.60;;;;;;5051785;28;20485;-73
2023/05/28 08:56:15;;;;;;;7.13;3.60;;;26.30;74.00;;;;;;5052496;28;20109;-71
2023/05/28 08:58:43;;;;;;;7.63;3.92;;;26.30;74.50;;;;;;5051213;28;20376;-71
2023/05/28 09:01:10;;;;;;;9.00;3.95;;;26.30;74.50;;;;;;5071051;28;20059;-70
2023/05/28 09:03:40;;;;;;;6.03;3.60;;;26.10;73.90;;;;;;5053437;28;20068;-70
2023/05/28 09:06:08;;;;;;;9.85;4.50;;;26.10;74.50;;;;;;5070627;28;20504;-72
2023/05/28 09:08:37;;;;;;;5.68;3.72;;;26.10;73.30;;;;;;5070626;28;20057;-72
2023/05/28 09:11:10;;;;;;;6.32;3.72;;;26.20;74.00;;;;;;5052119;28;20048;-72
2023/05/28 09:13:41;;;;;;;8.27;4.30;;;26.40;72.20;;;;;;5054911;28;20048;-71
2023/05/28 09:16:09;;;;;;;5.88;4.13;;;26.70;72.80;;;;;;5069222;28;20086;-70
2023/05/28 09:18:36;;;;;;;7.88;3.55;;;26.70;73.10;;;;;;5053668;28;20056;-71
2023/05/28 09:21:10;;;;;;;7.00;4.57;;;26.70;72.20;;;;;;5051586;28;20056;-72
2023/05/28 09:23:39;;;;;;;7.68;4.20;;;26.70;70.60;;;;;;5071303;28;20075;-71
2023/05/28 09:26:09;;;;;;;8.55;4.63;;;27.00;73.10;;;;;;5051705;28;20056;-72
2023/05/28 09:28:36;;;;;;;7.28;4.53;;;27.20;72.00;;;;;;5053511;28;20052;-72
2023/05/28 09:31:04;;;;;;;8.02;4.55;;;27.30;71.20;;;;;;5052162;28;20053;-71
2023/05/28 09:33:31;;;;;;;7.70;4.80;;;27.30;70.70;;;;;;5070154;28;20048;-71
2023/05/28 09:36:00;;;;;;;5.72;4.15;;;27.40;71.20;;;;;;5052704;28;20052;-70
2023/05/28 09:38:27;;;;;;;6.57;3.88;;;27.30;70.80;;;;;;5051814;28;20060;-71
2023/05/28 09:40:56;;;;;;;7.80;4.50;;;27.60;71.40;;;;;;5050865;28;20127;-72
2023/05/28 09:43:29;;;;;;;7.78;4.50;;;27.60;71.70;;;;;;5069304;28;20411;-71
2023/05/28 09:46:08;;;;;;;8.70;4.55;;;27.80;70.80;;;;;;5052356;28;20052;-72
2023/05/28 09:48:35;;;;;;;9.52;4.50;;;28.00;69.70;;;;;;5068193;28;20076;-72
2023/05/28 09:51:05;;;;;;;8.07;4.70;;;27.80;69.90;;;;;;5051790;28;20052;-72
2023/05/28 09:53:36;;;;;;;9.13;4.78;;;27.90;70.40;;;;;;5050304;28;20056;-71
2023/05/28 09:56:05;;;;;;;6.82;4.70;;;28.00;69.90;;;;;;5052264;28;20131;-72
2023/05/28 09:58:34;;;;;;;10.50;6.10;;;28.00;68.50;;;;;;5068349;28;20465;-71
2023/05/28 10:01:08;;;;;;;9.32;4.93;;;28.10;67.20;;;;;;5052281;28;20091;-72
2023/05/28 10:03:40;;;;;;;7.20;4.93;;;28.10;65.50;;;;;;5050790;28;20113;-71
2023/05/28 10:06:15;;;;;;;8.45;5.40;;;28.20;66.90;;;;;;5051962;28;20102;-73
2023/05/28 10:08:44;;;;;;;7.40;4.50;;;28.00;64.10;;;;;;5051763;28;20060;-72
2023/05/28 10:11:16;;;;;;;;;;;28.00;65.50;;;;;;5049586;28;20052;-72
2023/05/28 10:13:43;;;;;;;7.95;4.80;;;27.90;65.70;;;;;;5071346;28;19924;-72
2023/05/28 10:16:11;;;;;;;8.85;4.68;;;28.10;66.00;;;;;;5049834;28;20064;-72
2023/05/28 10:18:38;;;;;;;9.27;4.45;;;28.30;65.20;;;;;;5053209;28;20067;-72
2023/05/28 10:21:08;;;;;;;6.85;4.22;;;28.10;64.60;;;;;;5051523;28;20036;-71
2023/05/28 10:23:34;;;;;;;;;;;28.30;64.00;;;;;;5053842;28;20056;-72
2023/05/28 10:26:02;;;;;;;5.70;3.95;;;28.40;62.50;;;;;;5069753;28;19931;-72
2023/05/28 10:28:31;;;;;;;7.70;4.45;;;28.40;63.60;;;;;;5053099;28;20555;-72
2023/05/28 10:31:04;;;;;;;6.03;3.83;;;28.50;64.20;;;;;;5050706;28;20048;-71
2023/05/28 10:33:31;;;;;;;6.18;3.30;;;28.80;62.90;;;;;;5071468;28;20102;-72
2023/05/28 10:36:01;;;;;;;5.57;3.35;;;28.70;63.50;;;;;;5051321;28;20099;-71
2023/05/28 10:38:28;;;;;;;;;;;28.80;62.50;;;;;;5053565;28;20087;-72
2023/05/28 10:41:01;;;;;;;3.83;2.28;;;28.60;61.40;;;;;;5068504;28;19939;-72
2023/05/28 10:43:47;;;;;;;5.25;2.08;;;28.90;60.70;;;;;;5049714;28;20075;-72
2023/05/28 10:46:19;;;;;;;5.57;2.67;;;29.00;60.30;;;;;;5068949;28;20049;-71
2023/05/28 10:49:09;;;;;;;6.63;2.70;;;29.00;61.50;;;;;;5069118;28;20056;-72
2023/05/28 10:51:51;;;;;;;6.65;2.97;;;29.20;63.10;;;;;;5056070;28;20066;-72
2023/05/28 10:54:23;;;;;;;9.23;2.80;;;29.10;64.00;;;;;;5072935;28;20074;-71
2023/05/28 10:57:10;;;;;;;6.05;2.90;;;29.20;63.20;;;;;;5074310;28;20094;-72
2023/05/28 10:59:45;;;;;;;5.93;2.97;;;29.10;63.80;;;;;;5054904;28;21178;-72
2023/05/28 11:02:13;;;;;;;4.53;2.33;;;28.90;63.50;;;;;;5071947;28;20186;-72
2023/05/28 11:04:40;;;;;;;5.10;2.72;;;28.90;64.70;;;;;;5067464;28;20052;-71
2023/05/28 11:07:08;;;;;;;12.07;2.90;;;28.90;65.40;;;;;;5071444;28;20052;-71
2023/05/28 11:09:36;;;;;;;8.20;2.88;;;29.00;65.50;;;;;;5055453;28;20127;-71
2023/05/28 11:12:03;;;;;;;4.97;2.42;;;29.10;65.50;;;;;;5071420;28;20056;-72
2023/05/28 11:14:35;;;;;;;5.18;2.60;;;29.20;66.80;;;;;;5056746;28;20114;-71
2023/05/28 11:17:07;;;;;;;5.22;2.50;;;29.10;66.60;;;;;;5072323;28;20135;-71
2023/05/28 11:19:41;;;;;;;7.15;2.75;;;29.20;67.70;;;;;;5073443;28;20086;-72
2023/05/28 11:22:07;;;;;;;8.55;2.80;;;29.20;67.60;;;;;;5054168;28;20057;-70
2023/05/28 11:24:50;;;;;;;6.65;2.40;;;29.40;67.80;;;;;;5054978;28;20070;-71
2023/05/28 11:27:17;;;;;;;4.70;2.65;;;29.20;67.30;;;;;;5069051;28;20042;-71
2023/05/28 11:29:45;;;;;;;7.22;3.03;;;28.70;68.30;;;;;;5055839;28;20056;-71
2023/05/28 11:32:13;;;;;;;7.90;2.92;;;28.90;69.10;;;;;;5072233;28;20041;-71
2023/05/28 11:34:40;;;;;;;5.97;2.70;;;29.00;69.10;;;;;;5054211;28;20114;-71
2023/05/28 11:37:07;;;;;;;7.70;2.70;;;29.10;68.60;;;;;;5072350;28;20045;-71
2023/05/28 11:39:34;;;;;;;7.70;2.95;;;29.00;69.10;;;;;;5052405;28;20041;-71
2023/05/28 11:42:01;;;;;;;7.82;3.00;;;29.20;69.70;;;;;;5053123;28;20111;-70
2023/05/28 11:44:28;;;;;;;7.00;3.30;;;29.10;68.80;;;;;;5073156;28;20045;-71
2023/05/28 11:46:57;;;;;;;7.68;3.20;;;29.20;68.20;;;;;;5073406;28;20056;-71
2023/05/28 11:49:25;;;;;;;6.53;2.90;;;29.20;69.30;;;;;;5054970;28;20080;-70
2023/05/28 11:51:52;;;;;;;7.60;3.10;;;29.20;68.70;;;;;;5056128;28;20053;-72
2023/05/28 11:54:19;;;;;;;6.45;2.92;;;29.10;69.10;;;;;;5055998;28;20055;-71
2023/05/28 11:56:50;;;;;;;7.50;2.97;;;29.10;69.60;;;;;;5056871;28;20052;-72
2023/05/28 11:59:18;;;;;;;7.25;3.00;;;28.60;68.70;;;;;;5072387;28;20127;-71
2023/05/28 12:01:45;;;;;;;5.87;2.57;;;28.50;69.70;;;;;;5054080;28;20489;-72
2023/05/28 12:04:12;;;;;;;6.95;3.05;;;28.80;70.20;;;;;;5056234;28;20056;-71
2023/05/28 12:06:54;;;;;;;5.60;2.70;;;28.40;70.30;;;;;;5056311;28;20071;-70
2023/05/28 12:09:21;;;;;;;7.20;3.40;;;28.40;70.10;;;;;;5055862;28;20060;-71
2023/05/28 12:12:03;;;;;;;9.15;2.85;;;28.20;70.60;;;;;;5056234;28;20052;-72
2023/05/28 12:14:31;;;;;;;6.38;2.80;;;28.10;71.10;;;;;;5054198;28;20056;-70
2023/05/28 12:17:06;;;;;;;6.32;3.10;;;28.40;71.50;;;;;;5054349;28;20508;-71
2023/05/28 12:19:33;;;;;;;7.57;3.10;;;28.50;71.30;;;;;;5056249;28;20056;-71
2023/05/28 12:22:02;;;;;;;7.30;2.75;;;28.40;71.50;;;;;;5073278;28;20048;-71
2023/05/28 12:24:30;;;;;;;6.78;2.85;;;28.40;71.30;;;;;;5056020;28;20114;-71
2023/05/28 12:26:57;;;;;;;7.40;2.78;;;28.20;71.50;;;;;;5055978;28;20489;-71
2023/05/28 12:29:24;;;;;;;8.95;3.35;;;28.30;72.40;;;;;;5055452;28;20412;-71
2023/05/28 12:31:59;;;;;;;9.73;3.50;;;28.40;71.80;;;;;;5073571;28;20511;-71
2023/05/28 12:34:26;;;;;;;7.53;3.10;;;28.30;71.50;;;;;;5053467;28;20400;-70
2023/05/28 12:36:53;;;;;;;9.20;3.22;;;28.30;72.10;;;;;;5073285;28;20447;-71
2023/05/28 12:39:21;;;;;;;6.05;2.95;;;28.10;72.30;;;;;;5053602;28;20110;-71
2023/05/28 12:41:48;;;;;;;9.40;3.58;;;28.40;72.20;;;;;;5073648;28;20048;-71
2023/05/28 12:44:15;;;;;;;6.65;3.30;;;27.70;71.80;;;;;;5055258;28;20068;-71
2023/05/28 12:46:42;;;;;;;8.27;3.30;;;27.50;71.90;;;;;;5073628;28;20045;-70